Time;durP1;ratioP1;P1;durP2;ratioP2;P2;SDS_P1;SDS_P2;PMS_P1;PMS_P2;Temp;Humidity;BMP_temperature;BMP_pressure;BME280_temperature;BME280_humidity;BME280_pressure;Samples;Min_cycle;Max_cycle;Signal;HPM_P1;HPM_P2
2023/07/20 00:01:29;;;;;;;82.82;54.28;;;27.90;99.90;;;;;;5031215;28;20031;-74
2023/07/20 00:03:56;;;;;;;77.13;55.53;;;28.00;99.90;;;;;;5022974;28;20030;-74
2023/07/20 00:06:24;;;;;;;115.82;85.78;;;28.00;99.90;;;;;;5026931;28;20542;-75
2023/07/20 00:08:51;;;;;;;94.78;63.75;;;27.90;99.90;;;;;;5010918;28;20041;-73
2023/07/20 00:11:18;;;;;;;83.35;58.97;;;28.00;99.90;;;;;;5029152;28;20104;-74
2023/07/20 00:13:45;;;;;;;79.13;58.97;;;27.90;99.90;;;;;;5030224;28;20386;-76
2023/07/20 00:16:11;;;;;;;79.40;57.70;;;27.80;99.90;;;;;;5010562;28;20401;-76
2023/07/20 00:18:38;;;;;;;81.28;58.05;;;27.90;99.90;;;;;;5010826;28;20382;-73
2023/07/20 00:21:04;;;;;;;71.47;55.92;;;27.90;99.90;;;;;;5010600;28;20018;-72
2023/07/20 00:23:31;;;;;;;116.15;87.43;;;27.90;99.90;;;;;;5010562;28;20045;-73
2023/07/20 00:25:57;;;;;;;121.03;82.55;;;27.80;99.90;;;;;;5010841;28;20026;-74
2023/07/20 00:28:24;;;;;;;99.47;74.13;;;28.00;99.90;;;;;;5010515;28;20029;-75
2023/07/20 00:30:50;;;;;;;92.95;62.13;;;27.90;99.90;;;;;;5010703;28;20026;-78
2023/07/20 00:33:18;;;;;;;202.55;146.38;;;27.70;99.90;;;;;;5010659;28;20029;-74
2023/07/20 00:35:45;;;;;;;96.53;71.43;;;27.90;99.90;;;;;;5009403;28;20045;-76
2023/07/20 00:38:11;;;;;;;109.82;71.22;;;27.80;99.90;;;;;;5010679;28;20529;-74
2023/07/20 00:40:39;;;;;;;102.40;69.13;;;28.00;99.90;;;;;;5010577;28;20022;-74
2023/07/20 00:43:05;;;;;;;107.45;71.38;;;27.80;99.90;;;;;;5013898;28;20105;-76
2023/07/20 00:45:34;;;;;;;91.13;65.90;;;27.90;99.90;;;;;;5014038;28;20029;-75
2023/07/20 00:48:02;;;;;;;108.35;74.57;;;27.90;99.90;;;;;;5013998;28;20101;-75
2023/07/20 00:50:29;;;;;;;152.38;90.63;;;28.00;99.90;;;;;;5013852;28;20384;-76
2023/07/20 00:52:56;;;;;;;130.75;82.15;;;28.00;99.90;;;;;;5013831;28;20075;-74
2023/07/20 00:55:25;;;;;;;107.22;72.45;;;28.00;99.90;;;;;;5013876;28;20525;-75
2023/07/20 00:57:51;;;;;;;104.97;67.95;;;28.00;99.90;;;;;;5013744;28;20112;-75
2023/07/20 01:00:18;;;;;;;105.07;67.80;;;28.00;99.90;;;;;;5013846;28;20020;-75
2023/07/20 01:02:46;;;;;;;102.05;68.00;;;27.80;99.90;;;;;;5013720;28;20045;-75
2023/07/20 01:05:16;;;;;;;127.55;74.82;;;27.80;99.90;;;;;;5013611;28;20033;-74
2023/07/20 01:07:55;;;;;;;97.30;66.82;;;27.80;99.90;;;;;;5013680;28;20028;-74
2023/07/20 01:10:22;;;;;;;99.93;67.07;;;28.00;99.90;;;;;;5013594;28;20106;-73
2023/07/20 01:12:53;;;;;;;103.75;70.00;;;27.80;99.90;;;;;;5013418;28;20417;-74
2023/07/20 01:15:20;;;;;;;105.20;67.40;;;27.80;99.90;;;;;;5013618;28;20113;-74
2023/07/20 01:17:46;;;;;;;96.80;63.67;;;28.00;99.90;;;;;;5013343;28;20097;-74
2023/07/20 01:20:16;;;;;;;90.10;61.10;;;27.90;99.90;;;;;;5013475;28;20030;-75
2023/07/20 01:22:58;;;;;;;120.78;82.35;;;28.10;99.90;;;;;;5013197;28;20124;-73
2023/07/20 01:25:46;;;;;;;127.72;91.55;;;28.00;99.90;;;;;;5013314;28;20026;-72
2023/07/20 01:28:24;;;;;;;112.90;79.88;;;28.10;99.90;;;;;;5013266;28;20022;-73
2023/07/20 01:30:52;;;;;;;91.07;58.10;;;28.10;99.90;;;;;;5013324;28;20472;-73
2023/07/20 01:33:20;;;;;;;83.05;53.08;;;28.20;99.90;;;;;;5013240;28;20073;-73
2023/07/20 03:12:17;;;;;;;55.72;34.60;;;28.70;99.90;;;;;;5172946;27;20607;-71
2023/07/20 03:14:43;;;;;;;53.70;33.70;;;29.80;99.90;;;;;;5173429;27;20071;-71
2023/07/20 03:17:10;;;;;;;42.95;32.13;;;29.80;99.90;;;;;;5173131;27;20015;-71
2023/07/20 03:19:36;;;;;;;50.20;31.60;;;29.80;99.90;;;;;;5163918;27;20109;-69
2023/07/20 03:22:03;;;;;;;55.80;33.63;;;29.80;99.90;;;;;;5152447;27;20015;-70
2023/07/20 03:24:30;;;;;;;50.97;32.47;;;29.80;99.90;;;;;;5161807;27;20057;-70
2023/07/20 03:26:56;;;;;;;46.08;31.20;;;29.80;99.90;;;;;;5151895;27;20019;-73
2023/07/20 03:29:23;;;;;;;45.80;30.20;;;29.80;99.90;;;;;;5152197;27;20492;-73
2023/07/20 03:31:50;;;;;;;50.67;33.13;;;29.80;99.90;;;;;;5152112;27;20015;-69
2023/07/20 03:34:17;;;;;;;45.83;29.75;;;29.80;99.90;;;;;;5152002;27;20472;-71
2023/07/20 03:36:43;;;;;;;44.25;29.92;;;29.80;99.90;;;;;;5151921;27;20019;-68
2023/07/20 03:39:10;;;;;;;45.13;31.35;;;29.80;99.90;;;;;;5152014;27;20518;-69
2023/07/20 03:41:36;;;;;;;40.47;28.65;;;29.80;99.90;;;;;;5151807;27;20026;-69
2023/07/20 03:44:03;;;;;;;46.33;30.88;;;29.80;99.90;;;;;;5152070;27;20036;-68
2023/07/20 03:46:31;;;;;;;52.45;31.90;;;29.80;99.90;;;;;;5151822;27;20026;-71
2023/07/20 03:48:57;;;;;;;55.13;30.20;;;29.80;99.90;;;;;;5151480;27;20019;-67
2023/07/20 03:51:24;;;;;;;41.03;27.67;;;29.80;99.90;;;;;;5151233;27;20618;-68
2023/07/20 03:53:50;;;;;;;35.90;25.67;;;29.80;99.90;;;;;;5151267;27;20548;-67
2023/07/20 03:56:17;;;;;;;36.15;25.48;;;29.90;99.90;;;;;;5151223;27;20097;-67
2023/07/20 03:58:43;;;;;;;34.85;24.00;;;29.90;99.90;;;;;;5151050;27;20383;-67
2023/07/20 04:01:10;;;;;;;36.28;25.25;;;29.90;99.90;;;;;;5144003;27;20025;-68
2023/07/20 04:03:36;;;;;;;42.35;27.88;;;30.00;99.90;;;;;;5130771;27;20415;-66
2023/07/20 04:06:03;;;;;;;37.80;26.30;;;30.10;99.90;;;;;;5130719;27;20361;-66
2023/07/20 04:08:29;;;;;;;37.97;26.10;;;30.10;99.90;;;;;;5120993;27;20012;-69
2023/07/20 04:10:56;;;;;;;50.25;32.80;;;30.10;99.90;;;;;;5120807;27;20050;-67
2023/07/20 04:13:23;;;;;;;43.70;28.33;;;30.10;99.90;;;;;;5104118;28;20034;-67
2023/07/20 04:15:49;;;;;;;42.22;27.40;;;30.10;99.90;;;;;;5109819;28;20526;-68
2023/07/20 04:18:16;;;;;;;39.35;26.45;;;30.10;99.90;;;;;;5116669;28;20501;-68
2023/07/20 04:20:42;;;;;;;38.50;25.83;;;30.20;99.90;;;;;;5099311;28;20032;-68
2023/07/20 04:23:09;;;;;;;40.20;26.05;;;30.20;99.90;;;;;;5096266;28;20165;-68
2023/07/20 04:25:38;;;;;;;36.42;22.98;;;30.20;99.90;;;;;;5101919;28;20040;-68
2023/07/20 04:28:10;;;;;;;34.97;24.25;;;30.20;99.90;;;;;;5101027;28;20107;-68
2023/07/20 04:30:37;;;;;;;39.63;25.52;;;30.20;99.90;;;;;;5095984;28;20031;-65
2023/07/20 04:33:04;;;;;;;38.75;25.88;;;30.20;99.90;;;;;;5095927;28;20150;-66
2023/07/20 04:35:51;;;;;;;48.78;29.25;;;30.30;99.90;;;;;;5095750;28;20085;-66
2023/07/20 04:38:18;;;;;;;41.53;29.02;;;30.20;99.90;;;;;;5095878;28;20032;-66
2023/07/20 04:40:46;;;;;;;41.88;27.05;;;30.20;99.90;;;;;;5112147;28;20024;-65
2023/07/20 04:43:13;;;;;;;42.10;26.27;;;30.20;99.90;;;;;;5116708;28;20055;-65
2023/07/20 04:45:40;;;;;;;37.00;25.60;;;30.20;99.90;;;;;;5115890;28;20099;-65
2023/07/20 04:48:12;;;;;;;36.38;24.77;;;30.20;99.90;;;;;;5116098;28;20072;-67
2023/07/20 04:50:41;;;;;;;36.88;24.55;;;30.10;99.90;;;;;;5116086;28;20028;-66
2023/07/20 04:53:10;;;;;;;33.20;23.75;;;30.20;99.90;;;;;;5116093;28;20114;-65
2023/07/20 04:55:37;;;;;;;37.15;25.77;;;30.20;99.90;;;;;;5115294;28;20067;-66
2023/07/20 04:58:04;;;;;;;61.83;33.45;;;30.10;99.90;;;;;;5116318;28;20081;-65
2023/07/20 05:00:32;;;;;;;55.40;34.75;;;30.10;99.90;;;;;;5109348;28;20035;-64
2023/07/20 05:02:58;;;;;;;47.00;31.15;;;30.10;99.90;;;;;;5097117;28;20059;-65
2023/07/20 05:05:25;;;;;;;41.45;27.90;;;30.10;99.90;;;;;;5095592;28;20024;-65
2023/07/20 05:07:52;;;;;;;45.33;28.20;;;30.10;99.90;;;;;;5095535;28;20027;-66
2023/07/20 05:10:18;;;;;;;44.58;27.10;;;30.10;99.90;;;;;;5095721;28;20044;-65
2023/07/20 05:12:45;;;;;;;47.38;28.52;;;30.10;99.90;;;;;;5095438;28;20040;-66
2023/07/20 05:15:11;;;;;;;37.42;25.80;;;30.10;99.90;;;;;;5106773;28;20024;-68
2023/07/20 05:17:39;;;;;;;44.85;27.50;;;30.10;99.90;;;;;;5115470;28;20480;-69
2023/07/20 05:20:06;;;;;;;41.50;26.25;;;30.10;99.90;;;;;;5113183;27;20416;-67
2023/07/20 05:22:33;;;;;;;38.75;25.88;;;30.10;99.90;;;;;;5105048;28;20486;-66
2023/07/20 05:25:00;;;;;;;38.28;25.55;;;30.10;99.90;;;;;;5102040;28;20016;-68
2023/07/20 05:27:26;;;;;;;37.15;24.95;;;30.20;99.90;;;;;;5103961;28;20482;-66
2023/07/20 05:29:53;;;;;;;37.58;24.65;;;30.20;99.90;;;;;;5108765;28;20031;-67
2023/07/20 05:32:19;;;;;;;39.55;25.23;;;30.30;99.90;;;;;;5113389;28;20024;-68
2023/07/20 05:34:46;;;;;;;41.63;27.40;;;30.30;99.90;;;;;;5115416;28;20032;-67
2023/07/20 05:37:12;;;;;;;46.83;28.25;;;30.30;99.90;;;;;;5115095;28;20027;-66
2023/07/20 05:39:39;;;;;;;46.25;26.35;;;30.40;99.90;;;;;;5115105;28;20032;-65
2023/07/20 05:42:06;;;;;;;40.25;26.17;;;30.40;99.90;;;;;;5115504;28;20027;-68
2023/07/20 05:44:32;;;;;;;37.05;25.63;;;30.40;99.90;;;;;;5115550;28;20076;-67
2023/07/20 05:46:59;;;;;;;41.72;26.60;;;30.50;99.90;;;;;;5116193;28;20028;-66
2023/07/20 05:49:25;;;;;;;42.38;26.42;;;30.40;99.90;;;;;;5104206;28;20024;-67
2023/07/20 05:51:52;;;;;;;41.47;25.65;;;30.40;99.90;;;;;;5095200;28;20059;-66
2023/07/20 05:54:19;;;;;;;39.83;27.45;;;30.40;99.90;;;;;;5095521;28;20389;-67
2023/07/20 05:56:46;;;;;;;39.25;28.65;;;30.50;99.90;;;;;;5095433;28;20055;-67
2023/07/20 05:59:13;;;;;;;37.28;26.00;;;30.50;99.90;;;;;;5095610;28;20223;-67
2023/07/20 06:01:40;;;;;;;37.60;27.23;;;30.40;99.90;;;;;;5103827;28;20534;-66
2023/07/20 06:04:06;;;;;;;43.30;26.77;;;30.40;99.90;;;;;;5096714;28;20039;-67
2023/07/20 06:06:33;;;;;;;47.65;29.80;;;30.40;99.90;;;;;;5097578;28;20102;-67
2023/07/20 06:09:05;;;;;;;48.80;30.42;;;30.50;99.90;;;;;;5095384;28;20032;-65
2023/07/20 06:11:31;;;;;;;;;;;30.40;99.90;;;;;;5104276;28;20496;-67
2023/07/20 06:13:58;;;;;;;46.13;28.20;;;30.40;99.90;;;;;;5114509;28;20391;-69
2023/07/20 06:16:24;;;;;;;43.97;27.85;;;30.40;99.90;;;;;;5114062;28;20035;-68
2023/07/20 06:18:51;;;;;;;38.88;23.17;;;30.40;99.90;;;;;;5114360;28;20020;-68
2023/07/20 06:21:18;;;;;;;35.85;21.75;;;30.50;99.90;;;;;;5114088;28;20051;-68
2023/07/20 06:23:44;;;;;;;29.40;21.00;;;30.50;99.90;;;;;;5113873;28;20038;-68
2023/07/20 06:26:11;;;;;;;42.88;23.83;;;30.40;99.90;;;;;;5113457;28;20389;-67
2023/07/20 06:28:37;;;;;;;41.60;28.30;;;30.50;99.90;;;;;;5112912;28;20030;-68
2023/07/20 06:31:04;;;;;;;47.22;23.05;;;30.50;99.90;;;;;;5113472;28;20032;-69
2023/07/20 06:33:31;;;;;;;37.05;22.80;;;30.50;99.90;;;;;;5113820;28;20015;-68
2023/07/20 06:35:58;;;;;;;36.00;22.13;;;30.50;99.90;;;;;;5113605;28;20103;-68
2023/07/20 06:38:24;;;;;;;39.33;23.13;;;30.60;99.90;;;;;;5113691;28;20069;-69
2023/07/20 06:40:52;;;;;;;35.33;23.52;;;30.50;99.90;;;;;;5114336;28;20110;-68
2023/07/20 06:43:18;;;;;;;49.13;31.88;;;30.50;99.90;;;;;;5113920;28;20023;-68
2023/07/20 06:45:45;;;;;;;47.38;31.55;;;30.50;99.90;;;;;;5114043;28;20023;-68
2023/07/20 06:48:11;;;;;;;63.78;40.88;;;30.50;99.90;;;;;;5114153;28;20024;-67
2023/07/20 06:50:38;;;;;;;68.05;43.90;;;30.50;99.90;;;;;;5113708;28;20076;-67
2023/07/20 06:53:04;;;;;;;59.25;40.28;;;30.50;99.90;;;;;;5107361;28;20473;-66
2023/07/20 06:55:31;;;;;;;50.15;32.00;;;30.50;99.90;;;;;;5099675;28;20470;-65
2023/07/20 06:57:57;;;;;;;47.55;32.75;;;30.60;99.90;;;;;;5093472;28;20024;-65
2023/07/20 07:00:24;;;;;;;35.05;23.90;;;30.60;99.90;;;;;;5094470;28;20081;-65
2023/07/20 07:02:51;;;;;;;33.45;20.85;;;30.60;99.90;;;;;;5113639;28;20024;-66
2023/07/20 07:05:18;;;;;;;36.70;21.63;;;30.60;99.90;;;;;;5113625;28;20469;-66
2023/07/20 07:07:44;;;;;;;33.83;20.63;;;30.70;99.90;;;;;;5113979;28;20081;-66
2023/07/20 07:10:11;;;;;;;37.88;21.77;;;30.70;99.90;;;;;;5111360;28;20040;-66
2023/07/20 07:12:37;;;;;;;34.08;21.02;;;30.70;99.90;;;;;;5107794;28;20455;-66
2023/07/20 07:15:06;;;;;;;29.63;21.27;;;30.70;99.90;;;;;;5101670;28;20031;-66
2023/07/20 07:17:33;;;;;;;35.70;22.02;;;30.70;99.90;;;;;;5102293;28;20039;-67
2023/07/20 07:19:59;;;;;;;35.10;21.20;;;30.70;99.90;;;;;;5101649;28;20099;-67
2023/07/20 07:22:26;;;;;;;31.90;20.67;;;30.70;99.90;;;;;;5103497;28;20481;-67
2023/07/20 07:24:53;;;;;;;34.80;20.75;;;30.80;99.90;;;;;;5102811;28;20095;-67
2023/07/20 07:27:20;;;;;;;37.72;20.65;;;30.70;99.90;;;;;;5101526;28;20016;-69
2023/07/20 07:29:48;;;;;;;36.42;21.73;;;30.80;99.90;;;;;;5103254;28;20031;-68
2023/07/20 07:32:15;;;;;;;37.63;21.83;;;30.70;99.90;;;;;;5102899;28;20386;-68
2023/07/20 07:34:41;;;;;;;34.58;22.65;;;30.80;99.90;;;;;;5107092;28;20373;-67
2023/07/20 07:37:08;;;;;;;36.70;22.42;;;30.70;99.90;;;;;;5103700;28;20022;-67
2023/07/20 07:39:35;;;;;;;33.80;22.48;;;30.80;99.90;;;;;;5102698;28;20474;-69
2023/07/20 07:42:02;;;;;;;32.95;21.77;;;30.70;99.90;;;;;;5098484;28;20053;-71
2023/07/20 07:44:28;;;;;;;34.08;21.67;;;30.80;99.90;;;;;;5112351;28;20098;-68
2023/07/20 07:46:55;;;;;;;34.22;22.25;;;30.70;99.90;;;;;;5114245;28;20023;-67
2023/07/20 07:49:21;;;;;;;38.47;23.30;;;30.70;99.90;;;;;;5117232;28;20504;-67
2023/07/20 07:51:48;;;;;;;35.00;22.73;;;30.70;99.90;;;;;;5117349;28;20473;-68
2023/07/20 07:54:15;;;;;;;35.15;23.08;;;30.70;99.90;;;;;;5117060;28;20031;-68
2023/07/20 07:56:42;;;;;;;38.28;25.15;;;30.70;99.90;;;;;;5117413;28;20026;-68
2023/07/20 07:59:09;;;;;;;38.35;23.15;;;30.70;99.90;;;;;;5117260;28;20024;-68
2023/07/20 08:01:36;;;;;;;35.65;24.20;;;30.70;99.90;;;;;;5116780;28;20026;-68
2023/07/20 08:04:03;;;;;;;36.42;23.98;;;30.60;99.90;;;;;;5116883;28;20110;-67
2023/07/20 08:06:31;;;;;;;37.55;22.90;;;30.60;99.90;;;;;;5116600;28;20028;-68
2023/07/20 08:08:57;;;;;;;35.60;20.70;;;30.70;99.90;;;;;;5106344;28;20446;-68
2023/07/20 08:11:24;;;;;;;37.33;22.10;;;30.70;99.90;;;;;;5096147;28;20506;-68
2023/07/20 08:13:51;;;;;;;34.58;21.08;;;30.60;99.90;;;;;;5096733;28;20035;-68
2023/07/20 08:16:17;;;;;;;27.55;19.05;;;30.60;99.90;;;;;;5096214;28;20073;-67
2023/07/20 08:18:45;;;;;;;37.35;21.08;;;30.60;99.90;;;;;;5096300;28;20028;-67
2023/07/20 08:21:11;;;;;;;34.65;21.90;;;30.60;99.90;;;;;;5102380;28;20036;-66
2023/07/20 08:23:38;;;;;;;29.70;20.60;;;30.60;99.90;;;;;;5116584;28;20022;-66
2023/07/20 08:26:05;;;;;;;33.72;21.45;;;30.50;99.90;;;;;;5116530;28;20427;-68
2023/07/20 08:28:31;;;;;;;30.85;20.38;;;30.60;99.90;;;;;;5116520;28;20020;-68
2023/07/20 08:30:58;;;;;;;32.90;21.38;;;30.60;99.90;;;;;;5116450;27;20111;-66
2023/07/20 08:33:24;;;;;;;34.50;19.50;;;30.50;99.90;;;;;;5116319;28;20107;-64
2023/07/20 08:35:51;;;;;;;32.95;20.17;;;30.50;99.90;;;;;;5116624;27;20153;-66
2023/07/20 08:38:17;;;;;;;29.58;20.00;;;30.50;99.90;;;;;;5116522;28;20023;-69
2023/07/20 08:40:46;;;;;;;33.78;22.13;;;30.50;99.90;;;;;;5116384;28;20110;-67
2023/07/20 08:43:16;;;;;;;39.15;23.13;;;30.50;99.90;;;;;;5106080;28;20034;-67
2023/07/20 08:45:44;;;;;;;30.23;20.40;;;30.40;99.90;;;;;;5095368;28;20036;-66
2023/07/20 08:48:12;;;;;;;33.90;21.88;;;30.40;99.90;;;;;;5095845;28;20024;-66
2023/07/20 08:50:40;;;;;;;34.80;23.35;;;30.50;99.90;;;;;;5114160;28;20063;-67
2023/07/20 08:53:08;;;;;;;39.88;24.60;;;30.50;99.90;;;;;;5097256;28;20473;-66
2023/07/20 08:55:35;;;;;;;33.55;23.20;;;30.40;99.90;;;;;;5095471;28;20505;-65
2023/07/20 08:58:03;;;;;;;32.40;22.13;;;30.40;99.90;;;;;;5095274;28;20035;-66
2023/07/20 09:00:30;;;;;;;29.80;21.13;;;30.50;99.90;;;;;;5093833;28;20028;-65
2023/07/20 09:02:57;;;;;;;37.63;21.88;;;30.40;99.90;;;;;;5094861;28;20043;-64
2023/07/20 09:05:24;;;;;;;40.10;23.52;;;30.40;99.90;;;;;;5095369;28;20077;-67
2023/07/20 09:07:55;;;;;;;37.35;23.63;;;30.40;99.90;;;;;;5095320;28;20027;-65
2023/07/20 09:10:23;;;;;;;34.75;21.50;;;30.40;99.90;;;;;;5110798;28;20085;-66
2023/07/20 09:12:50;;;;;;;55.47;30.63;;;30.40;99.90;;;;;;5103926;28;20054;-68
2023/07/20 09:15:17;;;;;;;46.03;28.85;;;30.40;99.90;;;;;;5100494;28;20119;-68
2023/07/20 09:17:54;;;;;;;64.55;43.85;;;30.30;99.90;;;;;;5095472;28;20550;-69
2023/07/20 09:20:20;;;;;;;63.67;42.08;;;30.30;99.90;;;;;;5100101;28;20110;-67
2023/07/20 09:22:49;;;;;;;41.63;26.77;;;30.40;99.90;;;;;;5111521;28;20438;-67
2023/07/20 09:25:19;;;;;;;36.17;24.25;;;30.30;99.90;;;;;;5109572;28;20370;-65
2023/07/20 09:27:48;;;;;;;113.40;88.72;;;30.40;99.90;;;;;;5109132;28;20024;-66
2023/07/20 09:30:16;;;;;;;78.43;53.08;;;30.30;99.90;;;;;;5094368;28;20103;-66
2023/07/20 09:32:45;;;;;;;105.55;79.32;;;30.40;99.90;;;;;;5099597;28;20015;-65
2023/07/20 09:35:22;;;;;;;108.95;75.50;;;30.30;99.90;;;;;;5105842;28;20063;-65
2023/07/20 09:37:58;;;;;;;71.63;53.28;;;30.40;99.90;;;;;;5110492;28;20028;-66
2023/07/20 09:40:26;;;;;;;55.08;36.28;;;30.30;99.90;;;;;;5101420;28;20381;-66
2023/07/20 09:43:05;;;;;;;61.90;38.60;;;30.40;99.90;;;;;;5095966;28;20019;-65
2023/07/20 09:45:36;;;;;;;199.15;148.80;;;30.30;99.90;;;;;;5104060;28;20016;-67
2023/07/20 09:48:09;;;;;;;126.90;86.07;;;30.40;99.90;;;;;;5104271;28;20122;-67
2023/07/20 09:50:42;;;;;;;173.50;122.97;;;30.40;99.90;;;;;;5104659;28;20109;-66
2023/07/20 09:53:12;;;;;;;304.38;209.45;;;30.40;99.90;;;;;;5104950;28;20028;-66
2023/07/20 09:55:41;;;;;;;285.50;197.18;;;30.40;99.90;;;;;;5102404;28;20047;-66
2023/07/20 09:58:09;;;;;;;150.60;97.78;;;30.40;99.90;;;;;;5102878;28;20095;-66
2023/07/20 10:00:40;;;;;;;176.30;110.18;;;30.40;99.90;;;;;;5102475;28;20031;-67
2023/07/20 10:03:07;;;;;;;172.07;96.60;;;30.30;99.90;;;;;;5104718;28;20011;-67
2023/07/20 10:05:36;;;;;;;151.77;90.95;;;30.40;99.90;;;;;;5102662;28;20020;-67
2023/07/20 10:08:06;;;;;;;95.38;59.63;;;30.30;99.90;;;;;;5107898;28;20527;-67
2023/07/20 10:10:35;;;;;;;65.45;39.35;;;30.30;99.90;;;;;;5099721;28;20405;-65
2023/07/20 10:13:03;;;;;;;70.85;43.75;;;30.30;99.90;;;;;;5106417;28;20368;-67
2023/07/20 10:15:36;;;;;;;151.07;96.95;;;30.30;99.90;;;;;;5096295;28;20378;-65
2023/07/20 10:18:08;;;;;;;131.30;83.50;;;30.30;99.90;;;;;;5095152;28;20088;-66
2023/07/20 10:20:39;;;;;;;134.13;91.90;;;30.20;99.90;;;;;;5098923;28;20024;-65
2023/07/20 10:23:06;;;;;;;125.28;82.25;;;30.20;99.90;;;;;;5106190;28;20047;-66
2023/07/20 10:25:37;;;;;;;106.28;73.93;;;30.20;99.90;;;;;;5105947;28;20458;-65
2023/07/20 10:28:06;;;;;;;65.82;43.85;;;30.20;99.90;;;;;;5101686;28;20125;-66
2023/07/20 10:30:36;;;;;;;96.20;64.97;;;30.20;99.90;;;;;;5099551;28;20024;-66
2023/07/20 10:33:04;;;;;;;80.43;53.80;;;30.20;99.90;;;;;;5099952;28;20024;-66
2023/07/20 10:35:50;;;;;;;114.07;65.60;;;30.20;99.90;;;;;;5102982;28;20027;-67
2023/07/20 10:38:16;;;;;;;77.90;40.78;;;30.10;99.90;;;;;;5101539;28;20019;-66
2023/07/20 10:40:43;;;;;;;77.93;45.38;;;30.10;99.90;;;;;;5106311;28;20374;-67
2023/07/20 10:43:11;;;;;;;54.50;31.83;;;30.00;99.90;;;;;;5106626;28;20011;-67
2023/07/20 10:45:37;;;;;;;46.95;30.55;;;29.90;99.90;;;;;;5106394;28;20094;-66
2023/07/20 10:48:06;;;;;;;55.78;33.20;;;30.00;99.90;;;;;;5106011;28;20028;-66
2023/07/20 10:50:35;;;;;;;43.28;28.98;;;30.00;99.90;;;;;;5098998;28;20504;-65
2023/07/20 10:53:19;;;;;;;56.05;29.80;;;29.90;99.90;;;;;;5099088;28;20039;-67
2023/07/20 10:55:46;;;;;;;53.75;32.88;;;29.90;99.90;;;;;;5104983;28;20461;-66
2023/07/20 10:58:14;;;;;;;65.78;37.78;;;29.90;99.90;;;;;;5104870;28;20032;-67
2023/07/20 11:01:01;;;;;;;59.78;35.47;;;30.00;99.90;;;;;;5104386;28;20074;-67
2023/07/20 11:03:32;;;;;;;54.53;33.67;;;30.00;99.90;;;;;;5102195;28;20024;-66
2023/07/20 11:05:59;;;;;;;75.97;41.10;;;29.90;99.90;;;;;;5101965;28;20047;-65
2023/07/20 11:08:47;;;;;;;68.57;39.75;;;29.80;99.90;;;;;;5101753;28;20020;-65
2023/07/20 11:11:23;;;;;;;73.07;39.83;;;29.80;99.90;;;;;;5102242;28;20055;-65
2023/07/20 11:13:59;;;;;;;101.95;67.50;;;29.80;99.90;;;;;;5102367;28;20078;-66
2023/07/20 11:16:37;;;;;;;177.52;122.43;;;29.80;99.90;;;;;;5101610;28;20059;-66
2023/07/20 11:19:05;;;;;;;133.70;88.78;;;29.80;99.90;;;;;;5101661;28;20024;-66
2023/07/20 11:21:42;;;;;;;72.28;42.40;;;29.80;99.90;;;;;;5103149;28;20423;-66
2023/07/20 11:24:10;;;;;;;71.35;37.25;;;29.80;99.90;;;;;;5106027;28;20069;-66
2023/07/20 11:26:50;;;;;;;69.45;37.67;;;29.80;99.90;;;;;;5106227;28;20027;-67
2023/07/20 11:29:18;;;;;;;66.68;39.10;;;29.70;99.90;;;;;;5109315;28;20030;-67
2023/07/20 11:31:46;;;;;;;90.53;56.58;;;29.70;99.90;;;;;;5108325;28;20436;-66
2023/07/20 11:34:17;;;;;;;101.20;60.50;;;29.70;99.90;;;;;;5106696;28;20026;-66
2023/07/20 11:36:46;;;;;;;95.35;57.55;;;29.60;99.90;;;;;;5107702;28;20055;-66
2023/07/20 11:39:16;;;;;;;92.97;52.58;;;29.50;99.90;;;;;;5107410;28;20076;-65
2023/07/20 11:41:49;;;;;;;81.53;53.42;;;29.60;99.90;;;;;;5105451;28;20028;-66
2023/07/20 11:44:18;;;;;;;73.38;45.78;;;29.60;99.90;;;;;;5106327;28;20115;-66
2023/07/20 11:46:46;;;;;;;80.97;44.63;;;29.60;99.90;;;;;;5107665;27;20031;-65
2023/07/20 11:49:12;;;;;;;74.63;44.95;;;29.60;99.90;;;;;;5108052;28;20030;-66
2023/07/20 11:51:41;;;;;;;80.57;48.17;;;29.60;99.90;;;;;;5110183;28;20027;-67
2023/07/20 11:54:09;;;;;;;84.38;50.58;;;29.60;99.90;;;;;;5108489;28;20099;-64
2023/07/20 11:56:35;;;;;;;81.25;45.40;;;29.50;99.90;;;;;;5105531;28;20445;-67
2023/07/20 11:59:02;;;;;;;73.10;42.63;;;29.40;99.90;;;;;;5106295;27;20019;-66
2023/07/20 12:01:32;;;;;;;67.05;37.95;;;29.30;99.90;;;;;;5109422;28;20509;-66
2023/07/20 12:04:01;;;;;;;68.35;38.55;;;29.30;99.90;;;;;;5106301;28;20549;-69
2023/07/20 12:06:29;;;;;;;69.57;39.28;;;29.30;99.90;;;;;;5110186;28;20031;-71
2023/07/20 12:08:57;;;;;;;73.75;39.80;;;29.30;99.90;;;;;;5106655;28;20355;-69
2023/07/20 12:11:37;;;;;;;113.00;66.72;;;29.30;99.90;;;;;;5106089;28;20133;-69
2023/07/20 12:14:07;;;;;;;72.20;40.88;;;29.30;99.90;;;;;;5104657;28;20049;-71
2023/07/20 12:16:35;;;;;;;90.60;54.60;;;29.20;99.90;;;;;;5108605;28;20054;-68
2023/07/20 12:19:07;;;;;;;72.97;48.50;;;29.20;99.90;;;;;;5106158;28;20517;-71
2023/07/20 12:21:38;;;;;;;58.92;35.60;;;29.20;99.90;;;;;;5109860;28;20027;-68
2023/07/20 12:24:05;;;;;;;65.70;39.75;;;29.20;99.90;;;;;;5104445;28;20031;-69
2023/07/20 12:26:32;;;;;;;74.00;38.92;;;29.20;99.90;;;;;;5108264;28;20012;-69
2023/07/20 12:29:00;;;;;;;81.43;45.30;;;29.20;99.90;;;;;;5098748;28;20107;-67
2023/07/20 12:31:29;;;;;;;69.70;42.35;;;29.20;99.90;;;;;;5103780;28;20046;-67
2023/07/20 12:33:57;;;;;;;73.65;40.20;;;29.20;99.90;;;;;;5102897;27;20505;-67
2023/07/20 12:36:25;;;;;;;75.88;44.80;;;29.20;99.90;;;;;;5110172;27;20455;-67
2023/07/20 12:38:51;;;;;;;83.05;49.80;;;29.10;99.90;;;;;;5110166;28;20050;-67
2023/07/20 12:41:18;;;;;;;83.35;46.25;;;29.10;99.90;;;;;;5100065;28;20015;-68
2023/07/20 12:43:45;;;;;;;73.05;38.38;;;29.10;99.90;;;;;;5105762;28;20024;-76
2023/07/20 12:46:13;;;;;;;95.25;57.35;;;29.10;99.90;;;;;;5110624;28;20053;-67
2023/07/20 12:48:41;;;;;;;63.42;37.72;;;29.00;99.90;;;;;;5111214;28;20391;-68
2023/07/20 12:51:10;;;;;;;68.80;35.83;;;29.00;99.90;;;;;;5107552;28;20469;-69
2023/07/20 12:53:36;;;;;;;67.28;36.80;;;29.00;99.90;;;;;;5108330;28;20161;-72
2023/07/20 12:56:03;;;;;;;72.03;38.85;;;29.10;99.90;;;;;;5100429;28;20424;-68
2023/07/20 12:58:30;;;;;;;63.08;37.28;;;29.00;99.90;;;;;;5109299;28;20350;-68
2023/07/20 13:00:56;;;;;;;66.65;38.28;;;29.00;99.90;;;;;;5105679;28;20495;-69
2023/07/20 13:03:23;;;;;;;67.85;40.90;;;29.00;99.90;;;;;;5104150;28;20015;-68
2023/07/20 13:05:50;;;;;;;59.35;37.95;;;29.00;99.90;;;;;;5104144;28;20013;-70
2023/07/20 13:08:17;;;;;;;52.40;33.17;;;29.00;99.90;;;;;;5104890;28;20296;-68
2023/07/20 13:10:44;;;;;;;58.55;32.92;;;29.00;99.90;;;;;;5104720;28;20084;-69
2023/07/20 13:13:11;;;;;;;59.85;32.00;;;29.00;99.90;;;;;;5103678;28;20102;-69
2023/07/20 13:15:47;;;;;;;52.80;32.15;;;29.00;99.90;;;;;;5102741;28;20533;-68
2023/07/20 13:18:14;;;;;;;52.03;31.63;;;29.00;99.90;;;;;;5104760;28;20523;-69
2023/07/20 13:20:41;;;;;;;56.42;30.98;;;28.90;99.90;;;;;;5104893;28;20036;-68
2023/07/20 13:23:07;;;;;;;48.78;29.42;;;28.90;99.90;;;;;;5104780;28;20020;-69
2023/07/20 13:25:34;;;;;;;49.58;29.58;;;28.80;99.90;;;;;;5106882;28;20016;-68
2023/07/20 13:28:00;;;;;;;54.00;32.50;;;28.80;99.90;;;;;;5107377;28;20373;-68
2023/07/20 13:30:27;;;;;;;59.72;36.05;;;28.80;99.90;;;;;;5102342;28;20023;-68
2023/07/20 13:32:53;;;;;;;123.35;85.45;;;28.80;99.90;;;;;;5108970;28;20039;-69
2023/07/20 13:35:20;;;;;;;96.07;69.95;;;28.80;99.90;;;;;;5099999;28;20027;-71
2023/07/20 13:37:47;;;;;;;255.77;190.73;;;28.80;99.90;;;;;;5107299;28;20051;-71
2023/07/20 13:40:16;;;;;;;73.53;51.22;;;28.80;99.90;;;;;;5103005;28;20015;-70
2023/07/20 13:42:43;;;;;;;81.18;49.65;;;28.80;99.90;;;;;;5106102;28;20103;-72
2023/07/20 13:45:10;;;;;;;76.40;49.88;;;28.70;99.90;;;;;;5104817;28;20016;-70
2023/07/20 13:47:36;;;;;;;94.13;51.90;;;28.70;99.90;;;;;;5105919;28;20161;-70
2023/07/20 13:50:03;;;;;;;92.80;50.55;;;28.60;99.90;;;;;;5104436;28;20024;-69
2023/07/20 13:52:30;;;;;;;84.75;50.25;;;28.60;99.90;;;;;;5104559;28;20381;-71
2023/07/20 13:54:56;;;;;;;86.97;49.22;;;28.60;99.90;;;;;;5103693;28;20406;-71
2023/07/20 13:57:23;;;;;;;82.63;48.33;;;28.50;99.90;;;;;;5098901;28;20023;-71
2023/07/20 13:59:49;;;;;;;72.97;47.05;;;28.60;99.90;;;;;;5100253;28;20012;-72
2023/07/20 14:02:16;;;;;;;75.65;41.33;;;28.60;99.90;;;;;;5104225;28;20023;-67
2023/07/20 14:04:42;;;;;;;74.78;39.92;;;28.60;99.90;;;;;;5103816;28;20112;-68
2023/07/20 14:07:09;;;;;;;60.72;39.17;;;28.60;99.90;;;;;;5101306;27;20012;-66